LEVD/VLL METAR and TAF weather

Enter ICAO airport designator
Station Type Date Time Source
LEVD METAR 2024/06/14 01:30 UTC NOAA

LEVD 140130Z AUTO 25004KT CAVOK 13/09 Q1018


Station Type Date Time Source
LEVD Decoded METAR 2024/06/14 01:30 UTC NOAA

Valladolid / Villanubla, Spain (LEVD) 41-43N 004-51W 846M
Jun 13, 2024 - 09:30 PM EDT / 2024.06.14 0130 UTC
Wind: from the WSW (250 degrees) at 5 MPH (4 KT):0
Visibility: greater than 7 mile(s):0
Temperature: 55 F (13 C)
Dew Point: 48 F (9 C)
Relative Humidity: 76%
Pressure (altimeter): 30.06 in. Hg (1018 hPa)
ob: LEVD 140130Z AUTO 25004KT CAVOK 13/09 Q1018
cycle: 1

Station Type Date Time Source
LEVD TAF 2024/06/13 21:29 UTC NOAA